sensor_id;sensor_type;location;lat;lon;timestamp;P1;durP1;ratioP1;P2;durP2;ratioP2
22417;SDS011;11376;50.932;4.442;2023-02-28T00:01:27;7.83;;;3.70;;
22417;SDS011;11376;50.932;4.442;2023-02-28T00:03:53;8.50;;;3.47;;
22417;SDS011;11376;50.932;4.442;2023-02-28T00:06:19;8.07;;;3.70;;
22417;SDS011;11376;50.932;4.442;2023-02-28T00:08:45;8.10;;;3.70;;
22417;SDS011;11376;50.932;4.442;2023-02-28T00:11:12;9.73;;;3.83;;
22417;SDS011;11376;50.932;4.442;2023-02-28T00:13:40;8.13;;;3.83;;
22417;SDS011;11376;50.932;4.442;2023-02-28T00:16:08;8.43;;;4.07;;
22417;SDS011;11376;50.932;4.442;2023-02-28T00:18:40;11.90;;;4.10;;
22417;SDS011;11376;50.932;4.442;2023-02-28T00:21:06;9.10;;;3.87;;
22417;SDS011;11376;50.932;4.442;2023-02-28T00:23:31;8.70;;;3.80;;
22417;SDS011;11376;50.932;4.442;2023-02-28T00:25:57;8.93;;;3.80;;
22417;SDS011;11376;50.932;4.442;2023-02-28T00:28:24;9.80;;;3.90;;
22417;SDS011;11376;50.932;4.442;2023-02-28T00:30:50;9.23;;;4.03;;
22417;SDS011;11376;50.932;4.442;2023-02-28T00:33:15;12.23;;;4.17;;
22417;SDS011;11376;50.932;4.442;2023-02-28T00:35:41;12.97;;;4.27;;
22417;SDS011;11376;50.932;4.442;2023-02-28T00:38:08;9.47;;;4.07;;
22417;SDS011;11376;50.932;4.442;2023-02-28T00:40:34;10.17;;;4.20;;
22417;SDS011;11376;50.932;4.442;2023-02-28T00:43:00;9.83;;;4.30;;
22417;SDS011;11376;50.932;4.442;2023-02-28T00:45:25;9.20;;;4.30;;
22417;SDS011;11376;50.932;4.442;2023-02-28T00:47:51;8.83;;;3.80;;
22417;SDS011;11376;50.932;4.442;2023-02-28T00:50:17;10.27;;;4.13;;
22417;SDS011;11376;50.932;4.442;2023-02-28T00:52:45;10.97;;;4.23;;
22417;SDS011;11376;50.932;4.442;2023-02-28T00:55:11;9.60;;;4.40;;
22417;SDS011;11376;50.932;4.442;2023-02-28T00:57:37;10.90;;;4.00;;
22417;SDS011;11376;50.932;4.442;2023-02-28T01:00:03;9.40;;;4.17;;
22417;SDS011;11376;50.932;4.442;2023-02-28T01:02:29;11.30;;;4.67;;
22417;SDS011;11376;50.932;4.442;2023-02-28T01:04:54;8.60;;;4.47;;
22417;SDS011;11376;50.932;4.442;2023-02-28T01:07:21;9.30;;;4.60;;
22417;SDS011;11376;50.932;4.442;2023-02-28T01:09:47;10.07;;;4.77;;
22417;SDS011;11376;50.932;4.442;2023-02-28T01:12:13;10.60;;;4.83;;
22417;SDS011;11376;50.932;4.442;2023-02-28T01:14:39;10.17;;;4.83;;
22417;SDS011;11376;50.932;4.442;2023-02-28T01:17:04;10.70;;;4.83;;
22417;SDS011;11376;50.932;4.442;2023-02-28T01:19:30;10.40;;;4.63;;
22417;SDS011;11376;50.932;4.442;2023-02-28T01:21:55;11.37;;;5.03;;
22417;SDS011;11376;50.932;4.442;2023-02-28T01:24:21;9.93;;;4.83;;
22417;SDS011;11376;50.932;4.442;2023-02-28T01:26:46;12.83;;;5.30;;
22417;SDS011;11376;50.932;4.442;2023-02-28T01:29:12;11.33;;;5.17;;
22417;SDS011;11376;50.932;4.442;2023-02-28T01:31:38;11.03;;;5.00;;
22417;SDS011;11376;50.932;4.442;2023-02-28T01:34:03;13.60;;;5.23;;
22417;SDS011;11376;50.932;4.442;2023-02-28T01:36:29;9.67;;;4.97;;
22417;SDS011;11376;50.932;4.442;2023-02-28T01:38:55;11.10;;;5.00;;
22417;SDS011;11376;50.932;4.442;2023-02-28T01:43:56;11.33;;;5.53;;
22417;SDS011;11376;50.932;4.442;2023-02-28T01:46:22;12.93;;;5.27;;
22417;SDS011;11376;50.932;4.442;2023-02-28T01:48:51;9.80;;;5.27;;
22417;SDS011;11376;50.932;4.442;2023-02-28T01:53:58;11.30;;;5.47;;
22417;SDS011;11376;50.932;4.442;2023-02-28T01:56:29;13.23;;;5.77;;
22417;SDS011;11376;50.932;4.442;2023-02-28T01:59:00;10.70;;;5.47;;
22417;SDS011;11376;50.932;4.442;2023-02-28T02:01:26;13.40;;;5.47;;
22417;SDS011;11376;50.932;4.442;2023-02-28T02:03:53;14.33;;;6.33;;
22417;SDS011;11376;50.932;4.442;2023-02-28T02:06:21;9.83;;;5.20;;
22417;SDS011;11376;50.932;4.442;2023-02-28T02:08:49;13.47;;;5.90;;
22417;SDS011;11376;50.932;4.442;2023-02-28T02:11:15;13.27;;;5.87;;
22417;SDS011;11376;50.932;4.442;2023-02-28T02:22:00;12.23;;;5.70;;
22417;SDS011;11376;50.932;4.442;2023-02-28T02:28:05;11.43;;;5.77;;
22417;SDS011;11376;50.932;4.442;2023-02-28T02:33:26;13.80;;;6.27;;
22417;SDS011;11376;50.932;4.442;2023-02-28T02:36:02;11.90;;;6.67;;
22417;SDS011;11376;50.932;4.442;2023-02-28T02:39:13;10.67;;;6.20;;
22417;SDS011;11376;50.932;4.442;2023-02-28T02:44:36;14.67;;;6.20;;
22417;SDS011;11376;50.932;4.442;2023-02-28T02:47:13;11.87;;;6.10;;
22417;SDS011;11376;50.932;4.442;2023-02-28T02:49:46;13.63;;;6.53;;
22417;SDS011;11376;50.932;4.442;2023-02-28T02:52:22;15.73;;;6.33;;
22417;SDS011;11376;50.932;4.442;2023-02-28T02:54:52;12.30;;;6.77;;
22417;SDS011;11376;50.932;4.442;2023-02-28T02:57:26;17.57;;;7.30;;
22417;SDS011;11376;50.932;4.442;2023-02-28T02:59:57;11.10;;;6.37;;
22417;SDS011;11376;50.932;4.442;2023-02-28T03:02:26;13.07;;;6.73;;
22417;SDS011;11376;50.932;4.442;2023-02-28T03:05:00;16.77;;;6.83;;
22417;SDS011;11376;50.932;4.442;2023-02-28T03:07:28;15.10;;;6.73;;
22417;SDS011;11376;50.932;4.442;2023-02-28T03:09:55;14.97;;;6.93;;
22417;SDS011;11376;50.932;4.442;2023-02-28T03:12:23;13.63;;;6.77;;
22417;SDS011;11376;50.932;4.442;2023-02-28T03:15:04;15.27;;;6.90;;
22417;SDS011;11376;50.932;4.442;2023-02-28T03:22:52;16.13;;;7.03;;
22417;SDS011;11376;50.932;4.442;2023-02-28T03:28:31;17.47;;;7.27;;
22417;SDS011;11376;50.932;4.442;2023-02-28T03:31:35;13.93;;;7.00;;
22417;SDS011;11376;50.932;4.442;2023-02-28T03:34:06;15.90;;;6.47;;
22417;SDS011;11376;50.932;4.442;2023-02-28T03:36:38;18.50;;;7.60;;
22417;SDS011;11376;50.932;4.442;2023-02-28T03:39:24;16.07;;;7.00;;
22417;SDS011;11376;50.932;4.442;2023-02-28T03:42:00;14.33;;;6.93;;
22417;SDS011;11376;50.932;4.442;2023-02-28T03:44:29;16.27;;;7.73;;
22417;SDS011;11376;50.932;4.442;2023-02-28T03:47:00;14.27;;;7.40;;
22417;SDS011;11376;50.932;4.442;2023-02-28T03:49:49;17.73;;;7.70;;
22417;SDS011;11376;50.932;4.442;2023-02-28T03:52:20;15.73;;;7.93;;
22417;SDS011;11376;50.932;4.442;2023-02-28T03:54:50;15.27;;;7.53;;
22417;SDS011;11376;50.932;4.442;2023-02-28T04:00:06;16.90;;;8.27;;
22417;SDS011;11376;50.932;4.442;2023-02-28T04:02:37;21.00;;;8.63;;
22417;SDS011;11376;50.932;4.442;2023-02-28T04:05:02;15.13;;;7.60;;
22417;SDS011;11376;50.932;4.442;2023-02-28T04:07:29;16.23;;;7.63;;
22417;SDS011;11376;50.932;4.442;2023-02-28T04:09:55;15.30;;;7.47;;
22417;SDS011;11376;50.932;4.442;2023-02-28T04:12:21;15.63;;;7.80;;
22417;SDS011;11376;50.932;4.442;2023-02-28T04:14:48;15.47;;;7.63;;
22417;SDS011;11376;50.932;4.442;2023-02-28T04:17:14;19.93;;;8.13;;
22417;SDS011;11376;50.932;4.442;2023-02-28T04:19:41;19.30;;;7.87;;
22417;SDS011;11376;50.932;4.442;2023-02-28T04:22:07;18.53;;;8.13;;
22417;SDS011;11376;50.932;4.442;2023-02-28T04:24:34;18.77;;;8.27;;
22417;SDS011;11376;50.932;4.442;2023-02-28T04:27:00;16.40;;;8.13;;
22417;SDS011;11376;50.932;4.442;2023-02-28T04:31:53;18.27;;;8.20;;
22417;SDS011;11376;50.932;4.442;2023-02-28T04:34:19;20.17;;;8.23;;
22417;SDS011;11376;50.932;4.442;2023-02-28T04:36:46;16.47;;;7.80;;
22417;SDS011;11376;50.932;4.442;2023-02-28T04:39:14;22.70;;;8.70;;
22417;SDS011;11376;50.932;4.442;2023-02-28T04:41:40;16.63;;;8.17;;
22417;SDS011;11376;50.932;4.442;2023-02-28T04:44:05;19.13;;;8.47;;
22417;SDS011;11376;50.932;4.442;2023-02-28T04:46:31;16.43;;;8.33;;
22417;SDS011;11376;50.932;4.442;2023-02-28T04:48:57;19.40;;;8.37;;
22417;SDS011;11376;50.932;4.442;2023-02-28T04:51:23;18.93;;;8.90;;
22417;SDS011;11376;50.932;4.442;2023-02-28T04:53:49;14.53;;;8.00;;
22417;SDS011;11376;50.932;4.442;2023-02-28T04:56:16;15.40;;;7.83;;
22417;SDS011;11376;50.932;4.442;2023-02-28T04:58:42;15.37;;;7.80;;
22417;SDS011;11376;50.932;4.442;2023-02-28T05:01:19;16.43;;;8.50;;
22417;SDS011;11376;50.932;4.442;2023-02-28T05:03:47;16.60;;;7.83;;
22417;SDS011;11376;50.932;4.442;2023-02-28T05:06:14;19.63;;;7.97;;
22417;SDS011;11376;50.932;4.442;2023-02-28T05:08:40;15.57;;;7.33;;
22417;SDS011;11376;50.932;4.442;2023-02-28T05:11:06;13.53;;;7.23;;
22417;SDS011;11376;50.932;4.442;2023-02-28T05:13:38;19.00;;;7.70;;
22417;SDS011;11376;50.932;4.442;2023-02-28T05:16:04;13.80;;;7.00;;
22417;SDS011;11376;50.932;4.442;2023-02-28T05:18:30;13.93;;;7.03;;
22417;SDS011;11376;50.932;4.442;2023-02-28T05:20:55;14.67;;;6.77;;
22417;SDS011;11376;50.932;4.442;2023-02-28T05:23:21;14.80;;;6.97;;
22417;SDS011;11376;50.932;4.442;2023-02-28T05:25:47;12.73;;;6.53;;
22417;SDS011;11376;50.932;4.442;2023-02-28T05:28:13;11.67;;;6.50;;
22417;SDS011;11376;50.932;4.442;2023-02-28T05:30:39;13.57;;;6.90;;
22417;SDS011;11376;50.932;4.442;2023-02-28T05:33:05;10.37;;;6.00;;
22417;SDS011;11376;50.932;4.442;2023-02-28T05:35:30;12.43;;;6.73;;
22417;SDS011;11376;50.932;4.442;2023-02-28T05:37:56;15.13;;;6.13;;
22417;SDS011;11376;50.932;4.442;2023-02-28T05:40:22;14.43;;;6.50;;
22417;SDS011;11376;50.932;4.442;2023-02-28T05:42:49;13.30;;;6.00;;
22417;SDS011;11376;50.932;4.442;2023-02-28T05:45:15;13.27;;;6.57;;
22417;SDS011;11376;50.932;4.442;2023-02-28T05:47:42;12.50;;;6.60;;
22417;SDS011;11376;50.932;4.442;2023-02-28T05:50:07;12.80;;;6.20;;
22417;SDS011;11376;50.932;4.442;2023-02-28T05:52:35;13.10;;;6.60;;
22417;SDS011;11376;50.932;4.442;2023-02-28T05:55:01;12.93;;;5.93;;
22417;SDS011;11376;50.932;4.442;2023-02-28T05:57:26;12.73;;;5.97;;
22417;SDS011;11376;50.932;4.442;2023-02-28T05:59:52;12.80;;;6.40;;
22417;SDS011;11376;50.932;4.442;2023-02-28T06:02:18;15.47;;;6.93;;
22417;SDS011;11376;50.932;4.442;2023-02-28T06:04:44;15.37;;;6.60;;
22417;SDS011;11376;50.932;4.442;2023-02-28T06:07:10;11.87;;;6.43;;
22417;SDS011;11376;50.932;4.442;2023-02-28T06:09:36;11.23;;;6.50;;
22417;SDS011;11376;50.932;4.442;2023-02-28T06:12:02;13.00;;;6.20;;
22417;SDS011;11376;50.932;4.442;2023-02-28T06:14:30;16.40;;;6.60;;
22417;SDS011;11376;50.932;4.442;2023-02-28T06:16:57;11.17;;;6.10;;
22417;SDS011;11376;50.932;4.442;2023-02-28T06:19:24;12.73;;;5.97;;
22417;SDS011;11376;50.932;4.442;2023-02-28T06:21:51;12.40;;;5.93;;
22417;SDS011;11376;50.932;4.442;2023-02-28T06:24:18;11.03;;;5.57;;
22417;SDS011;11376;50.932;4.442;2023-02-28T06:26:44;13.63;;;5.80;;
22417;SDS011;11376;50.932;4.442;2023-02-28T06:29:10;11.50;;;5.87;;
22417;SDS011;11376;50.932;4.442;2023-02-28T06:31:36;12.63;;;6.13;;
22417;SDS011;11376;50.932;4.442;2023-02-28T06:34:03;12.37;;;5.60;;
22417;SDS011;11376;50.932;4.442;2023-02-28T06:36:29;12.53;;;5.90;;
22417;SDS011;11376;50.932;4.442;2023-02-28T06:38:55;10.90;;;5.80;;
22417;SDS011;11376;50.932;4.442;2023-02-28T06:41:24;12.17;;;5.40;;
22417;SDS011;11376;50.932;4.442;2023-02-28T06:43:51;13.70;;;5.73;;
22417;SDS011;11376;50.932;4.442;2023-02-28T06:46:17;11.47;;;5.87;;
22417;SDS011;11376;50.932;4.442;2023-02-28T06:48:44;13.13;;;5.60;;
22417;SDS011;11376;50.932;4.442;2023-02-28T06:51:11;9.67;;;5.00;;
22417;SDS011;11376;50.932;4.442;2023-02-28T06:53:45;11.57;;;5.57;;
22417;SDS011;11376;50.932;4.442;2023-02-28T06:56:12;11.40;;;5.80;;
22417;SDS011;11376;50.932;4.442;2023-02-28T06:58:38;11.00;;;5.50;;
22417;SDS011;11376;50.932;4.442;2023-02-28T07:01:04;13.90;;;5.30;;
22417;SDS011;11376;50.932;4.442;2023-02-28T07:03:30;9.57;;;5.00;;
22417;SDS011;11376;50.932;4.442;2023-02-28T07:05:56;9.80;;;5.03;;
22417;SDS011;11376;50.932;4.442;2023-02-28T07:08:22;11.63;;;5.23;;
22417;SDS011;11376;50.932;4.442;2023-02-28T07:10:51;13.00;;;5.40;;
22417;SDS011;11376;50.932;4.442;2023-02-28T07:13:18;17.10;;;5.10;;
22417;SDS011;11376;50.932;4.442;2023-02-28T07:15:43;11.70;;;5.37;;
22417;SDS011;11376;50.932;4.442;2023-02-28T07:18:09;9.73;;;4.97;;
22417;SDS011;11376;50.932;4.442;2023-02-28T07:20:35;10.07;;;5.17;;
22417;SDS011;11376;50.932;4.442;2023-02-28T07:23:00;11.13;;;5.17;;
22417;SDS011;11376;50.932;4.442;2023-02-28T07:25:27;11.23;;;5.03;;
22417;SDS011;11376;50.932;4.442;2023-02-28T07:27:54;11.13;;;5.20;;
22417;SDS011;11376;50.932;4.442;2023-02-28T07:30:20;9.07;;;4.73;;
22417;SDS011;11376;50.932;4.442;2023-02-28T07:32:46;15.47;;;5.20;;
22417;SDS011;11376;50.932;4.442;2023-02-28T07:35:11;9.73;;;5.10;;
22417;SDS011;11376;50.932;4.442;2023-02-28T07:37:40;10.03;;;5.30;;
22417;SDS011;11376;50.932;4.442;2023-02-28T07:40:07;14.90;;;5.40;;
22417;SDS011;11376;50.932;4.442;2023-02-28T07:42:36;11.60;;;5.10;;
22417;SDS011;11376;50.932;4.442;2023-02-28T07:45:03;15.10;;;4.97;;
22417;SDS011;11376;50.932;4.442;2023-02-28T07:47:29;10.97;;;4.60;;
22417;SDS011;11376;50.932;4.442;2023-02-28T07:49:56;9.90;;;4.43;;
22417;SDS011;11376;50.932;4.442;2023-02-28T07:52:21;9.80;;;4.90;;
22417;SDS011;11376;50.932;4.442;2023-02-28T07:54:48;8.20;;;4.00;;
22417;SDS011;11376;50.932;4.442;2023-02-28T07:57:14;11.73;;;4.50;;
22417;SDS011;11376;50.932;4.442;2023-02-28T07:59:40;10.57;;;4.63;;
22417;SDS011;11376;50.932;4.442;2023-02-28T08:02:06;11.00;;;4.23;;
22417;SDS011;11376;50.932;4.442;2023-02-28T08:04:32;8.80;;;4.10;;
22417;SDS011;11376;50.932;4.442;2023-02-28T08:06:57;6.77;;;3.50;;
22417;SDS011;11376;50.932;4.442;2023-02-28T08:09:23;9.37;;;4.03;;
22417;SDS011;11376;50.932;4.442;2023-02-28T08:11:49;7.77;;;4.00;;
22417;SDS011;11376;50.932;4.442;2023-02-28T08:14:14;6.70;;;3.70;;
22417;SDS011;11376;50.932;4.442;2023-02-28T08:16:40;8.03;;;3.33;;
22417;SDS011;11376;50.932;4.442;2023-02-28T08:19:07;6.73;;;3.00;;
22417;SDS011;11376;50.932;4.442;2023-02-28T08:21:33;9.37;;;3.40;;
22417;SDS011;11376;50.932;4.442;2023-02-28T08:23:59;5.33;;;2.80;;
22417;SDS011;11376;50.932;4.442;2023-02-28T08:26:25;6.33;;;2.80;;
22417;SDS011;11376;50.932;4.442;2023-02-28T08:28:50;7.73;;;2.47;;
22417;SDS011;11376;50.932;4.442;2023-02-28T08:31:16;7.03;;;2.67;;
22417;SDS011;11376;50.932;4.442;2023-02-28T08:33:43;4.43;;;2.33;;
22417;SDS011;11376;50.932;4.442;2023-02-28T08:36:09;5.23;;;2.30;;
22417;SDS011;11376;50.932;4.442;2023-02-28T08:38:36;4.30;;;1.80;;
22417;SDS011;11376;50.932;4.442;2023-02-28T08:41:06;5.30;;;2.20;;
22417;SDS011;11376;50.932;4.442;2023-02-28T08:43:34;6.03;;;1.90;;
22417;SDS011;11376;50.932;4.442;2023-02-28T08:46:00;4.70;;;1.93;;
22417;SDS011;11376;50.932;4.442;2023-02-28T08:48:26;5.63;;;2.07;;
22417;SDS011;11376;50.932;4.442;2023-02-28T08:53:51;5.00;;;2.07;;
22417;SDS011;11376;50.932;4.442;2023-02-28T08:56:19;5.40;;;2.10;;
22417;SDS011;11376;50.932;4.442;2023-02-28T08:58:45;6.70;;;2.33;;
22417;SDS011;11376;50.932;4.442;2023-02-28T09:01:13;5.83;;;2.10;;
22417;SDS011;11376;50.932;4.442;2023-02-28T09:03:43;3.77;;;2.00;;
22417;SDS011;11376;50.932;4.442;2023-02-28T09:06:11;6.20;;;2.27;;
22417;SDS011;11376;50.932;4.442;2023-02-28T09:08:37;6.77;;;2.20;;
22417;SDS011;11376;50.932;4.442;2023-02-28T09:11:03;4.57;;;2.07;;
22417;SDS011;11376;50.932;4.442;2023-02-28T09:13:29;4.97;;;2.00;;
22417;SDS011;11376;50.932;4.442;2023-02-28T09:15:57;5.27;;;2.10;;
22417;SDS011;11376;50.932;4.442;2023-02-28T09:18:24;4.33;;;2.10;;
22417;SDS011;11376;50.932;4.442;2023-02-28T09:20:50;5.70;;;2.03;;
22417;SDS011;11376;50.932;4.442;2023-02-28T09:23:16;4.20;;;2.00;;
22417;SDS011;11376;50.932;4.442;2023-02-28T09:25:45;5.63;;;1.63;;
22417;SDS011;11376;50.932;4.442;2023-02-28T09:28:13;2.87;;;1.30;;
22417;SDS011;11376;50.932;4.442;2023-02-28T09:30:40;5.93;;;2.07;;
22417;SDS011;11376;50.932;4.442;2023-02-28T09:33:06;2.97;;;1.40;;
22417;SDS011;11376;50.932;4.442;2023-02-28T09:35:33;4.40;;;1.90;;
22417;SDS011;11376;50.932;4.442;2023-02-28T09:37:59;6.83;;;1.73;;
22417;SDS011;11376;50.932;4.442;2023-02-28T09:40:24;5.83;;;1.50;;
22417;SDS011;11376;50.932;4.442;2023-02-28T09:42:52;3.57;;;1.57;;
22417;SDS011;11376;50.932;4.442;2023-02-28T09:45:30;4.90;;;1.43;;
22417;SDS011;11376;50.932;4.442;2023-02-28T09:48:02;3.90;;;1.70;;
22417;SDS011;11376;50.932;4.442;2023-02-28T09:50:36;5.40;;;1.60;;
22417;SDS011;11376;50.932;4.442;2023-02-28T09:53:18;3.90;;;1.43;;
22417;SDS011;11376;50.932;4.442;2023-02-28T09:55:51;4.43;;;1.60;;
22417;SDS011;11376;50.932;4.442;2023-02-28T10:01:01;5.30;;;1.50;;
22417;SDS011;11376;50.932;4.442;2023-02-28T10:06:26;3.00;;;1.30;;
22417;SDS011;11376;50.932;4.442;2023-02-28T10:11:23;5.13;;;1.53;;
22417;SDS011;11376;50.932;4.442;2023-02-28T10:16:25;4.67;;;1.63;;
22417;SDS011;11376;50.932;4.442;2023-02-28T10:21:31;4.07;;;1.63;;
22417;SDS011;11376;50.932;4.442;2023-02-28T10:24:19;4.03;;;1.30;;
22417;SDS011;11376;50.932;4.442;2023-02-28T10:26:52;2.97;;;1.23;;
22417;SDS011;11376;50.932;4.442;2023-02-28T10:29:24;3.10;;;1.40;;
22417;SDS011;11376;50.932;4.442;2023-02-28T10:31:50;3.27;;;1.50;;
22417;SDS011;11376;50.932;4.442;2023-02-28T10:34:15;3.77;;;1.50;;
22417;SDS011;11376;50.932;4.442;2023-02-28T10:36:41;5.03;;;1.80;;
22417;SDS011;11376;50.932;4.442;2023-02-28T10:42:18;2.43;;;0.90;;
22417;SDS011;11376;50.932;4.442;2023-02-28T10:47:48;1.55;;;1.00;;
22417;SDS011;11376;50.932;4.442;2023-02-28T10:50:42;3.63;;;0.98;;
22417;SDS011;11376;50.932;4.442;2023-02-28T10:55:58;3.85;;;1.10;;
22417;SDS011;11376;50.932;4.442;2023-02-28T10:58:42;2.92;;;1.10;;
22417;SDS011;11376;50.932;4.442;2023-02-28T11:01:39;2.63;;;1.10;;
22417;SDS011;11376;50.932;4.442;2023-02-28T11:06:44;2.75;;;1.13;;
22417;SDS011;11376;50.932;4.442;2023-02-28T11:09:19;2.83;;;1.20;;
22417;SDS011;11376;50.932;4.442;2023-02-28T11:11:54;4.10;;;1.25;;
22417;SDS011;11376;50.932;4.442;2023-02-28T11:14:30;3.28;;;1.50;;
22417;SDS011;11376;50.932;4.442;2023-02-28T11:17:03;5.70;;;1.35;;
22417;SDS011;11376;50.932;4.442;2023-02-28T11:19:40;3.97;;;1.40;;
22417;SDS011;11376;50.932;4.442;2023-02-28T11:22:10;2.55;;;1.52;;
22417;SDS011;11376;50.932;4.442;2023-02-28T11:24:43;4.95;;;1.35;;
22417;SDS011;11376;50.932;4.442;2023-02-28T11:29:56;2.58;;;1.30;;
22417;SDS011;11376;50.932;4.442;2023-02-28T11:32:24;2.35;;;1.08;;
22417;SDS011;11376;50.932;4.442;2023-02-28T11:35:17;3.72;;;1.40;;
22417;SDS011;11376;50.932;4.442;2023-02-28T11:37:48;2.95;;;1.27;;
22417;SDS011;11376;50.932;4.442;2023-02-28T11:40:14;4.32;;;1.50;;
22417;SDS011;11376;50.932;4.442;2023-02-28T11:42:53;3.20;;;1.50;;
22417;SDS011;11376;50.932;4.442;2023-02-28T11:45:43;2.08;;;1.25;;
22417;SDS011;11376;50.932;4.442;2023-02-28T11:48:20;2.20;;;1.30;;
22417;SDS011;11376;50.932;4.442;2023-02-28T11:51:10;2.38;;;1.27;;
22417;SDS011;11376;50.932;4.442;2023-02-28T11:56:55;4.70;;;1.35;;
22417;SDS011;11376;50.932;4.442;2023-02-28T12:04:35;2.33;;;1.27;;
22417;SDS011;11376;50.932;4.442;2023-02-28T12:07:22;2.10;;;1.23;;
22417;SDS011;11376;50.932;4.442;2023-02-28T12:10:18;2.85;;;1.15;;
22417;SDS011;11376;50.932;4.442;2023-02-28T12:13:15;3.00;;;1.48;;
22417;SDS011;11376;50.932;4.442;2023-02-28T12:27:16;2.60;;;1.40;;
22417;SDS011;11376;50.932;4.442;2023-02-28T12:32:36;3.13;;;1.60;;
22417;SDS011;11376;50.932;4.442;2023-02-28T12:37:39;3.13;;;1.27;;
22417;SDS011;11376;50.932;4.442;2023-02-28T12:40:18;3.63;;;1.15;;
22417;SDS011;11376;50.932;4.442;2023-02-28T12:42:50;4.65;;;1.52;;
22417;SDS011;11376;50.932;4.442;2023-02-28T12:45:20;3.53;;;1.65;;
22417;SDS011;11376;50.932;4.442;2023-02-28T12:48:09;2.33;;;1.40;;
22417;SDS011;11376;50.932;4.442;2023-02-28T12:50:39;2.08;;;1.30;;
22417;SDS011;11376;50.932;4.442;2023-02-28T12:53:09;2.63;;;1.42;;
22417;SDS011;11376;50.932;4.442;2023-02-28T12:58:45;2.50;;;1.30;;
22417;SDS011;11376;50.932;4.442;2023-02-28T13:01:21;2.40;;;1.40;;
22417;SDS011;11376;50.932;4.442;2023-02-28T13:07:10;2.97;;;1.45;;
22417;SDS011;11376;50.932;4.442;2023-02-28T13:10:02;2.70;;;1.17;;
22417;SDS011;11376;50.932;4.442;2023-02-28T13:12:31;3.30;;;1.33;;
22417;SDS011;11376;50.932;4.442;2023-02-28T13:17:47;3.95;;;1.48;;
22417;SDS011;11376;50.932;4.442;2023-02-28T13:20:16;2.60;;;1.40;;
22417;SDS011;11376;50.932;4.442;2023-02-28T13:22:45;1.95;;;1.27;;
22417;SDS011;11376;50.932;4.442;2023-02-28T13:27:47;3.42;;;1.30;;
22417;SDS011;11376;50.932;4.442;2023-02-28T13:35:44;2.20;;;1.20;;
22417;SDS011;11376;50.932;4.442;2023-02-28T13:38:21;2.28;;;1.20;;
22417;SDS011;11376;50.932;4.442;2023-02-28T13:40:49;2.80;;;1.48;;
22417;SDS011;11376;50.932;4.442;2023-02-28T13:43:16;2.28;;;1.42;;
22417;SDS011;11376;50.932;4.442;2023-02-28T13:46:05;2.53;;;1.25;;
22417;SDS011;11376;50.932;4.442;2023-02-28T13:48:34;2.35;;;1.52;;
22417;SDS011;11376;50.932;4.442;2023-02-28T13:51:00;2.30;;;1.35;;
22417;SDS011;11376;50.932;4.442;2023-02-28T13:54:07;3.40;;;1.50;;
22417;SDS011;11376;50.932;4.442;2023-02-28T13:56:49;3.70;;;1.48;;
22417;SDS011;11376;50.932;4.442;2023-02-28T13:59:46;4.00;;;1.50;;
22417;SDS011;11376;50.932;4.442;2023-02-28T14:05:12;2.80;;;1.60;;
22417;SDS011;11376;50.932;4.442;2023-02-28T14:07:51;2.42;;;1.50;;
22417;SDS011;11376;50.932;4.442;2023-02-28T14:10:27;4.05;;;1.63;;
22417;SDS011;11376;50.932;4.442;2023-02-28T14:13:43;3.22;;;1.40;;
22417;SDS011;11376;50.932;4.442;2023-02-28T14:18:24;5.72;;;1.42;;
22417;SDS011;11376;50.932;4.442;2023-02-28T14:20:54;4.38;;;1.20;;
22417;SDS011;11376;50.932;4.442;2023-02-28T14:31:41;5.43;;;1.40;;
22417;SDS011;11376;50.932;4.442;2023-02-28T14:36:58;2.78;;;1.67;;
22417;SDS011;11376;50.932;4.442;2023-02-28T14:39:26;4.95;;;1.48;;
22417;SDS011;11376;50.932;4.442;2023-02-28T14:41:55;3.00;;;1.67;;
22417;SDS011;11376;50.932;4.442;2023-02-28T14:44:28;2.92;;;1.60;;
22417;SDS011;11376;50.932;4.442;2023-02-28T14:46:55;4.38;;;1.63;;
22417;SDS011;11376;50.932;4.442;2023-02-28T14:49:34;3.60;;;1.55;;
22417;SDS011;11376;50.932;4.442;2023-02-28T14:54:35;3.80;;;1.50;;
22417;SDS011;11376;50.932;4.442;2023-02-28T14:57:01;3.47;;;1.70;;
22417;SDS011;11376;50.932;4.442;2023-02-28T14:59:29;5.32;;;1.67;;
22417;SDS011;11376;50.932;4.442;2023-02-28T15:04:52;2.92;;;1.80;;
22417;SDS011;11376;50.932;4.442;2023-02-28T15:07:19;3.63;;;1.60;;
22417;SDS011;11376;50.932;4.442;2023-02-28T15:10:06;2.75;;;1.48;;
22417;SDS011;11376;50.932;4.442;2023-02-28T15:15:18;3.85;;;1.42;;
22417;SDS011;11376;50.932;4.442;2023-02-28T15:17:46;4.35;;;1.80;;
22417;SDS011;11376;50.932;4.442;2023-02-28T15:20:15;4.63;;;2.08;;
22417;SDS011;11376;50.932;4.442;2023-02-28T15:22:41;4.05;;;1.90;;
22417;SDS011;11376;50.932;4.442;2023-02-28T15:25:09;4.47;;;1.98;;
22417;SDS011;11376;50.932;4.442;2023-02-28T15:27:41;4.05;;;1.90;;
22417;SDS011;11376;50.932;4.442;2023-02-28T15:30:21;6.38;;;1.92;;
22417;SDS011;11376;50.932;4.442;2023-02-28T15:33:06;3.50;;;1.70;;
22417;SDS011;11376;50.932;4.442;2023-02-28T15:35:33;3.67;;;1.80;;
22417;SDS011;11376;50.932;4.442;2023-02-28T15:40:42;4.67;;;1.60;;
22417;SDS011;11376;50.932;4.442;2023-02-28T15:43:14;3.77;;;1.87;;
22417;SDS011;11376;50.932;4.442;2023-02-28T15:46:23;4.40;;;1.93;;
22417;SDS011;11376;50.932;4.442;2023-02-28T15:48:35;4.30;;;1.90;;
22417;SDS011;11376;50.932;4.442;2023-02-28T15:51:08;4.07;;;1.80;;
22417;SDS011;11376;50.932;4.442;2023-02-28T15:53:40;4.97;;;1.60;;
22417;SDS011;11376;50.932;4.442;2023-02-28T15:58:59;4.03;;;2.03;;
22417;SDS011;11376;50.932;4.442;2023-02-28T16:01:38;3.87;;;1.83;;
22417;SDS011;11376;50.932;4.442;2023-02-28T16:04:04;3.63;;;1.60;;
22417;SDS011;11376;50.932;4.442;2023-02-28T16:06:42;4.00;;;1.80;;
22417;SDS011;11376;50.932;4.442;2023-02-28T16:09:13;3.60;;;1.67;;
22417;SDS011;11376;50.932;4.442;2023-02-28T16:11:47;4.87;;;1.80;;
22417;SDS011;11376;50.932;4.442;2023-02-28T16:14:16;6.00;;;1.77;;
22417;SDS011;11376;50.932;4.442;2023-02-28T16:16:48;6.40;;;2.00;;
22417;SDS011;11376;50.932;4.442;2023-02-28T16:19:16;5.00;;;1.70;;
22417;SDS011;11376;50.932;4.442;2023-02-28T16:21:42;4.30;;;1.90;;
22417;SDS011;11376;50.932;4.442;2023-02-28T16:24:08;3.83;;;1.70;;
22417;SDS011;11376;50.932;4.442;2023-02-28T16:26:33;5.10;;;2.00;;
22417;SDS011;11376;50.932;4.442;2023-02-28T16:29:02;3.17;;;1.53;;
22417;SDS011;11376;50.932;4.442;2023-02-28T16:31:28;4.67;;;1.67;;
22417;SDS011;11376;50.932;4.442;2023-02-28T16:33:54;7.93;;;1.93;;
22417;SDS011;11376;50.932;4.442;2023-02-28T16:36:21;4.40;;;1.80;;
22417;SDS011;11376;50.932;4.442;2023-02-28T16:38:50;5.77;;;1.80;;
22417;SDS011;11376;50.932;4.442;2023-02-28T16:41:20;3.80;;;1.93;;
22417;SDS011;11376;50.932;4.442;2023-02-28T16:43:50;2.67;;;1.50;;
22417;SDS011;11376;50.932;4.442;2023-02-28T16:46:17;4.20;;;2.10;;
22417;SDS011;11376;50.932;4.442;2023-02-28T16:48:44;3.53;;;1.70;;
22417;SDS011;11376;50.932;4.442;2023-02-28T16:51:12;4.67;;;1.70;;
22417;SDS011;11376;50.932;4.442;2023-02-28T16:53:40;7.60;;;2.10;;
22417;SDS011;11376;50.932;4.442;2023-02-28T16:56:06;9.53;;;2.40;;
22417;SDS011;11376;50.932;4.442;2023-02-28T16:58:34;4.63;;;1.87;;
22417;SDS011;11376;50.932;4.442;2023-02-28T17:01:00;4.57;;;2.03;;
22417;SDS011;11376;50.932;4.442;2023-02-28T17:03:27;7.00;;;2.13;;
22417;SDS011;11376;50.932;4.442;2023-02-28T17:05:54;5.00;;;2.10;;
22417;SDS011;11376;50.932;4.442;2023-02-28T17:08:20;5.13;;;1.97;;
22417;SDS011;11376;50.932;4.442;2023-02-28T17:10:45;3.63;;;1.80;;
22417;SDS011;11376;50.932;4.442;2023-02-28T17:13:11;5.03;;;1.87;;
22417;SDS011;11376;50.932;4.442;2023-02-28T17:15:37;3.73;;;1.97;;
22417;SDS011;11376;50.932;4.442;2023-02-28T17:18:04;5.07;;;2.23;;